sensor_id;sensor_type;location;lat;lon;timestamp;temperature;humidity
15413;DHT22;7805;49.554;7.632;2023-08-12T00:00:16;20.90;99.90
15413;DHT22;7805;49.554;7.632;2023-08-12T00:02:42;20.90;99.90
15413;DHT22;7805;49.554;7.632;2023-08-12T00:05:09;20.90;99.90
15413;DHT22;7805;49.554;7.632;2023-08-12T00:07:38;21.20;99.90
15413;DHT22;7805;49.554;7.632;2023-08-12T00:10:06;20.90;99.90
15413;DHT22;7805;49.554;7.632;2023-08-12T00:12:33;20.90;99.90
15413;DHT22;7805;49.554;7.632;2023-08-12T00:14:59;20.90;99.90
15413;DHT22;7805;49.554;7.632;2023-08-12T00:17:25;21.00;99.90
15413;DHT22;7805;49.554;7.632;2023-08-12T00:19:51;20.90;99.90
15413;DHT22;7805;49.554;7.632;2023-08-12T00:22:17;21.00;99.90
15413;DHT22;7805;49.554;7.632;2023-08-12T00:24:43;21.00;99.90
15413;DHT22;7805;49.554;7.632;2023-08-12T00:27:08;20.80;99.90
15413;DHT22;7805;49.554;7.632;2023-08-12T00:29:34;20.80;99.90
15413;DHT22;7805;49.554;7.632;2023-08-12T00:32:01;20.80;99.90
15413;DHT22;7805;49.554;7.632;2023-08-12T00:34:26;20.80;99.90
15413;DHT22;7805;49.554;7.632;2023-08-12T00:36:52;20.80;99.90
15413;DHT22;7805;49.554;7.632;2023-08-12T00:39:17;20.90;99.90
15413;DHT22;7805;49.554;7.632;2023-08-12T00:41:43;20.90;99.90
15413;DHT22;7805;49.554;7.632;2023-08-12T00:44:09;20.90;99.90
15413;DHT22;7805;49.554;7.632;2023-08-12T00:46:35;20.80;99.90
15413;DHT22;7805;49.554;7.632;2023-08-12T00:49:01;20.90;99.90
15413;DHT22;7805;49.554;7.632;2023-08-12T00:51:27;20.80;99.90
15413;DHT22;7805;49.554;7.632;2023-08-12T00:53:54;20.80;99.90
15413;DHT22;7805;49.554;7.632;2023-08-12T00:56:21;20.80;99.90
15413;DHT22;7805;49.554;7.632;2023-08-12T00:58:47;20.70;99.90
15413;DHT22;7805;49.554;7.632;2023-08-12T01:01:13;20.70;99.90
15413;DHT22;7805;49.554;7.632;2023-08-12T01:03:39;20.50;99.90
15413;DHT22;7805;49.554;7.632;2023-08-12T01:06:04;20.50;99.90
15413;DHT22;7805;49.554;7.632;2023-08-12T01:08:32;20.60;99.90
15413;DHT22;7805;49.554;7.632;2023-08-12T01:11:12;20.50;99.90
15413;DHT22;7805;49.554;7.632;2023-08-12T01:13:49;20.50;99.90
15413;DHT22;7805;49.554;7.632;2023-08-12T01:16:19;20.50;99.90
15413;DHT22;7805;49.554;7.632;2023-08-12T01:18:47;20.50;99.90
15413;DHT22;7805;49.554;7.632;2023-08-12T01:21:16;20.50;99.90
15413;DHT22;7805;49.554;7.632;2023-08-12T01:23:42;20.60;99.90
15413;DHT22;7805;49.554;7.632;2023-08-12T01:26:08;20.40;99.90
15413;DHT22;7805;49.554;7.632;2023-08-12T01:28:34;20.40;99.90
15413;DHT22;7805;49.554;7.632;2023-08-12T01:31:53;20.60;99.90
15413;DHT22;7805;49.554;7.632;2023-08-12T01:34:31;20.60;99.90
15413;DHT22;7805;49.554;7.632;2023-08-12T01:36:59;20.70;99.90
15413;DHT22;7805;49.554;7.632;2023-08-12T01:39:26;20.70;99.90
15413;DHT22;7805;49.554;7.632;2023-08-12T01:41:53;20.70;99.90
15413;DHT22;7805;49.554;7.632;2023-08-12T01:44:19;20.90;99.90
15413;DHT22;7805;49.554;7.632;2023-08-12T01:46:45;20.70;99.90
15413;DHT22;7805;49.554;7.632;2023-08-12T01:49:11;20.70;99.90
15413;DHT22;7805;49.554;7.632;2023-08-12T01:51:36;20.60;99.90
15413;DHT22;7805;49.554;7.632;2023-08-12T01:54:02;20.50;99.90
15413;DHT22;7805;49.554;7.632;2023-08-12T01:56:28;20.30;99.90
15413;DHT22;7805;49.554;7.632;2023-08-12T01:58:53;20.30;99.90
15413;DHT22;7805;49.554;7.632;2023-08-12T02:01:19;20.30;99.90
15413;DHT22;7805;49.554;7.632;2023-08-12T02:03:44;20.30;99.90
15413;DHT22;7805;49.554;7.632;2023-08-12T02:06:10;20.30;99.90
15413;DHT22;7805;49.554;7.632;2023-08-12T02:08:35;20.30;99.90
15413;DHT22;7805;49.554;7.632;2023-08-12T02:11:01;20.50;99.90
15413;DHT22;7805;49.554;7.632;2023-08-12T02:13:26;20.40;99.90
15413;DHT22;7805;49.554;7.632;2023-08-12T02:15:53;20.40;99.90
15413;DHT22;7805;49.554;7.632;2023-08-12T02:18:18;20.50;99.90
15413;DHT22;7805;49.554;7.632;2023-08-12T02:20:47;20.60;99.90
15413;DHT22;7805;49.554;7.632;2023-08-12T02:23:13;20.50;99.90
15413;DHT22;7805;49.554;7.632;2023-08-12T02:25:38;20.40;99.90
15413;DHT22;7805;49.554;7.632;2023-08-12T02:28:04;20.40;99.90
15413;DHT22;7805;49.554;7.632;2023-08-12T02:30:30;20.30;99.90
15413;DHT22;7805;49.554;7.632;2023-08-12T02:32:56;20.40;99.90
15413;DHT22;7805;49.554;7.632;2023-08-12T02:35:21;20.60;99.90
15413;DHT22;7805;49.554;7.632;2023-08-12T02:37:48;20.40;99.90
15413;DHT22;7805;49.554;7.632;2023-08-12T02:40:14;20.50;99.90
15413;DHT22;7805;49.554;7.632;2023-08-12T02:42:43;20.50;99.90
15413;DHT22;7805;49.554;7.632;2023-08-12T02:45:09;20.60;99.90
15413;DHT22;7805;49.554;7.632;2023-08-12T02:47:34;20.60;99.90
15413;DHT22;7805;49.554;7.632;2023-08-12T02:50:00;20.50;99.90
15413;DHT22;7805;49.554;7.632;2023-08-12T02:52:25;20.50;99.90
15413;DHT22;7805;49.554;7.632;2023-08-12T02:54:51;20.50;99.90
15413;DHT22;7805;49.554;7.632;2023-08-12T02:57:16;20.60;99.90
15413;DHT22;7805;49.554;7.632;2023-08-12T02:59:42;20.70;99.90
15413;DHT22;7805;49.554;7.632;2023-08-12T03:02:08;20.70;99.90
15413;DHT22;7805;49.554;7.632;2023-08-12T03:04:33;20.70;99.90
15413;DHT22;7805;49.554;7.632;2023-08-12T03:06:59;20.70;99.90
15413;DHT22;7805;49.554;7.632;2023-08-12T03:09:25;20.80;99.90
15413;DHT22;7805;49.554;7.632;2023-08-12T03:11:50;20.80;99.90
15413;DHT22;7805;49.554;7.632;2023-08-12T03:14:16;20.90;99.90
15413;DHT22;7805;49.554;7.632;2023-08-12T03:16:41;20.90;99.90
15413;DHT22;7805;49.554;7.632;2023-08-12T03:19:07;21.10;99.90
15413;DHT22;7805;49.554;7.632;2023-08-12T03:21:32;20.70;99.90
15413;DHT22;7805;49.554;7.632;2023-08-12T03:23:59;20.70;99.90
15413;DHT22;7805;49.554;7.632;2023-08-12T03:26:25;20.60;99.90
15413;DHT22;7805;49.554;7.632;2023-08-12T03:28:51;20.70;99.90
15413;DHT22;7805;49.554;7.632;2023-08-12T03:31:16;20.60;99.90
15413;DHT22;7805;49.554;7.632;2023-08-12T03:37:04;20.60;99.90
15413;DHT22;7805;49.554;7.632;2023-08-12T03:39:30;20.60;99.90
15413;DHT22;7805;49.554;7.632;2023-08-12T03:41:55;20.60;99.90
15413;DHT22;7805;49.554;7.632;2023-08-12T03:44:21;20.40;99.90
15413;DHT22;7805;49.554;7.632;2023-08-12T03:46:46;20.40;99.90
15413;DHT22;7805;49.554;7.632;2023-08-12T03:49:12;20.30;99.90
15413;DHT22;7805;49.554;7.632;2023-08-12T03:51:38;20.30;99.90
15413;DHT22;7805;49.554;7.632;2023-08-12T03:54:03;20.40;99.90
15413;DHT22;7805;49.554;7.632;2023-08-12T03:56:29;20.40;99.90
15413;DHT22;7805;49.554;7.632;2023-08-12T03:58:55;20.60;99.90
15413;DHT22;7805;49.554;7.632;2023-08-12T04:01:21;20.40;99.90
15413;DHT22;7805;49.554;7.632;2023-08-12T04:03:46;20.50;99.90
15413;DHT22;7805;49.554;7.632;2023-08-12T04:06:12;20.40;99.90
15413;DHT22;7805;49.554;7.632;2023-08-12T04:12:00;20.40;99.90
15413;DHT22;7805;49.554;7.632;2023-08-12T04:14:26;20.40;99.90
15413;DHT22;7805;49.554;7.632;2023-08-12T04:16:51;20.40;99.90
15413;DHT22;7805;49.554;7.632;2023-08-12T04:19:17;20.40;99.90
15413;DHT22;7805;49.554;7.632;2023-08-12T04:21:42;20.50;99.90
15413;DHT22;7805;49.554;7.632;2023-08-12T04:24:11;20.40;99.90
15413;DHT22;7805;49.554;7.632;2023-08-12T04:26:37;20.40;99.90
15413;DHT22;7805;49.554;7.632;2023-08-12T04:29:02;20.50;99.90
15413;DHT22;7805;49.554;7.632;2023-08-12T04:31:37;20.40;99.90
15413;DHT22;7805;49.554;7.632;2023-08-12T05:00:46;20.40;99.90
15413;DHT22;7805;49.554;7.632;2023-08-12T05:03:12;20.40;99.90
15413;DHT22;7805;49.554;7.632;2023-08-12T05:05:38;20.40;99.90
15413;DHT22;7805;49.554;7.632;2023-08-12T05:08:03;20.40;99.90
15413;DHT22;7805;49.554;7.632;2023-08-12T05:10:29;20.40;99.90
15413;DHT22;7805;49.554;7.632;2023-08-12T05:12:57;20.50;99.90
15413;DHT22;7805;49.554;7.632;2023-08-12T05:15:23;20.50;99.90
15413;DHT22;7805;49.554;7.632;2023-08-12T05:17:48;20.50;99.90
15413;DHT22;7805;49.554;7.632;2023-08-12T05:20:14;20.60;99.90
15413;DHT22;7805;49.554;7.632;2023-08-12T05:22:39;20.60;99.90
15413;DHT22;7805;49.554;7.632;2023-08-12T05:25:05;20.70;99.90
15413;DHT22;7805;49.554;7.632;2023-08-12T05:27:31;20.70;99.90
15413;DHT22;7805;49.554;7.632;2023-08-12T05:29:56;20.70;99.90
15413;DHT22;7805;49.554;7.632;2023-08-12T05:32:22;20.70;99.90
15413;DHT22;7805;49.554;7.632;2023-08-12T05:34:51;20.70;99.90
15413;DHT22;7805;49.554;7.632;2023-08-12T05:37:17;20.70;99.90
15413;DHT22;7805;49.554;7.632;2023-08-12T05:39:43;20.80;99.90
15413;DHT22;7805;49.554;7.632;2023-08-12T05:42:08;21.00;99.90
15413;DHT22;7805;49.554;7.632;2023-08-12T05:44:34;19.30;99.90
15413;DHT22;7805;49.554;7.632;2023-08-12T05:46:59;20.80;99.90
15413;DHT22;7805;49.554;7.632;2023-08-12T05:49:25;20.90;99.90
15413;DHT22;7805;49.554;7.632;2023-08-12T05:51:51;20.90;99.90
15413;DHT22;7805;49.554;7.632;2023-08-12T05:54:16;20.90;99.90
15413;DHT22;7805;49.554;7.632;2023-08-12T05:56:42;21.00;99.90
15413;DHT22;7805;49.554;7.632;2023-08-12T05:59:07;21.00;99.90
15413;DHT22;7805;49.554;7.632;2023-08-12T06:01:33;21.10;99.90
15413;DHT22;7805;49.554;7.632;2023-08-12T06:03:58;21.10;99.90
15413;DHT22;7805;49.554;7.632;2023-08-12T06:06:24;21.10;99.90
15413;DHT22;7805;49.554;7.632;2023-08-12T06:08:49;21.10;99.90
15413;DHT22;7805;49.554;7.632;2023-08-12T06:11:15;21.20;99.90
15413;DHT22;7805;49.554;7.632;2023-08-12T06:13:41;21.20;99.90
15413;DHT22;7805;49.554;7.632;2023-08-12T06:16:06;21.60;99.90
15413;DHT22;7805;49.554;7.632;2023-08-12T06:18:32;21.30;99.90
15413;DHT22;7805;49.554;7.632;2023-08-12T06:20:58;21.40;99.90
15413;DHT22;7805;49.554;7.632;2023-08-12T06:23:24;21.50;99.90
15413;DHT22;7805;49.554;7.632;2023-08-12T06:25:49;21.50;99.90
15413;DHT22;7805;49.554;7.632;2023-08-12T06:28:18;21.50;99.90
15413;DHT22;7805;49.554;7.632;2023-08-12T06:30:46;21.50;99.90
15413;DHT22;7805;49.554;7.632;2023-08-12T06:33:14;21.60;99.90
15413;DHT22;7805;49.554;7.632;2023-08-12T06:35:40;21.60;99.90
15413;DHT22;7805;49.554;7.632;2023-08-12T06:38:06;21.80;99.90
15413;DHT22;7805;49.554;7.632;2023-08-12T06:40:31;21.70;99.90
15413;DHT22;7805;49.554;7.632;2023-08-12T06:42:57;21.80;99.90
15413;DHT22;7805;49.554;7.632;2023-08-12T06:45:22;21.80;99.90
15413;DHT22;7805;49.554;7.632;2023-08-12T06:47:48;21.90;99.90
15413;DHT22;7805;49.554;7.632;2023-08-12T06:50:13;22.00;99.90
15413;DHT22;7805;49.554;7.632;2023-08-12T06:52:39;22.10;99.90
15413;DHT22;7805;49.554;7.632;2023-08-12T06:55:05;22.20;99.90
15413;DHT22;7805;49.554;7.632;2023-08-12T06:57:30;22.30;99.90
15413;DHT22;7805;49.554;7.632;2023-08-12T06:59:56;22.40;99.90
15413;DHT22;7805;49.554;7.632;2023-08-12T07:02:22;22.50;99.90
15413;DHT22;7805;49.554;7.632;2023-08-12T07:04:48;22.50;99.90
15413;DHT22;7805;49.554;7.632;2023-08-12T07:07:13;22.70;99.90
15413;DHT22;7805;49.554;7.632;2023-08-12T07:23:08;23.30;99.90
15413;DHT22;7805;49.554;7.632;2023-08-12T07:25:34;23.30;99.90
15413;DHT22;7805;49.554;7.632;2023-08-12T07:27:59;23.30;99.90
15413;DHT22;7805;49.554;7.632;2023-08-12T07:30:25;23.40;99.90
15413;DHT22;7805;49.554;7.632;2023-08-12T07:32:50;23.40;99.90
15413;DHT22;7805;49.554;7.632;2023-08-12T07:35:16;23.40;99.90
15413;DHT22;7805;49.554;7.632;2023-08-12T07:37:41;23.30;99.90
15413;DHT22;7805;49.554;7.632;2023-08-12T07:40:07;23.40;99.90
15413;DHT22;7805;49.554;7.632;2023-08-12T07:42:34;23.30;99.90
15413;DHT22;7805;49.554;7.632;2023-08-12T07:44:59;23.20;99.90
15413;DHT22;7805;49.554;7.632;2023-08-12T07:47:25;23.20;99.90
15413;DHT22;7805;49.554;7.632;2023-08-12T07:49:50;23.40;99.90
15413;DHT22;7805;49.554;7.632;2023-08-12T07:52:16;23.60;99.90
15413;DHT22;7805;49.554;7.632;2023-08-12T07:54:42;23.70;99.90
15413;DHT22;7805;49.554;7.632;2023-08-12T07:57:07;23.90;99.90
15413;DHT22;7805;49.554;7.632;2023-08-12T07:59:33;24.10;99.90
15413;DHT22;7805;49.554;7.632;2023-08-12T08:01:58;24.30;99.90
15413;DHT22;7805;49.554;7.632;2023-08-12T08:04:24;24.50;99.90
15413;DHT22;7805;49.554;7.632;2023-08-12T08:06:49;24.60;99.90
15413;DHT22;7805;49.554;7.632;2023-08-12T08:09:15;24.90;99.90
15413;DHT22;7805;49.554;7.632;2023-08-12T08:11:40;25.00;99.90
15413;DHT22;7805;49.554;7.632;2023-08-12T08:14:06;25.10;99.90
15413;DHT22;7805;49.554;7.632;2023-08-12T08:16:32;25.00;99.90
15413;DHT22;7805;49.554;7.632;2023-08-12T08:18:57;25.00;99.90
15413;DHT22;7805;49.554;7.632;2023-08-12T08:21:23;25.00;99.90
15413;DHT22;7805;49.554;7.632;2023-08-12T08:23:48;25.10;99.90
15413;DHT22;7805;49.554;7.632;2023-08-12T08:26:14;25.30;99.90
15413;DHT22;7805;49.554;7.632;2023-08-12T08:28:41;25.50;99.90
15413;DHT22;7805;49.554;7.632;2023-08-12T08:31:06;25.60;99.90
15413;DHT22;7805;49.554;7.632;2023-08-12T08:33:32;25.40;99.90
15413;DHT22;7805;49.554;7.632;2023-08-12T08:35:57;25.50;99.90
15413;DHT22;7805;49.554;7.632;2023-08-12T08:38:23;25.80;99.90
15413;DHT22;7805;49.554;7.632;2023-08-12T08:40:49;26.10;99.90
15413;DHT22;7805;49.554;7.632;2023-08-12T08:43:20;26.30;99.90
15413;DHT22;7805;49.554;7.632;2023-08-12T08:45:50;26.50;99.90
15413;DHT22;7805;49.554;7.632;2023-08-12T08:48:21;26.60;99.90
15413;DHT22;7805;49.554;7.632;2023-08-12T08:50:47;26.70;99.90
15413;DHT22;7805;49.554;7.632;2023-08-12T08:53:14;26.90;99.90
15413;DHT22;7805;49.554;7.632;2023-08-12T08:55:41;27.00;99.90
15413;DHT22;7805;49.554;7.632;2023-08-12T08:58:07;26.80;99.90
15413;DHT22;7805;49.554;7.632;2023-08-12T09:00:33;26.70;99.90
15413;DHT22;7805;49.554;7.632;2023-08-12T09:02:59;26.50;99.90
15413;DHT22;7805;49.554;7.632;2023-08-12T09:05:25;26.40;99.90
15413;DHT22;7805;49.554;7.632;2023-08-12T09:07:53;26.30;99.90
15413;DHT22;7805;49.554;7.632;2023-08-12T09:10:20;26.20;99.90
15413;DHT22;7805;49.554;7.632;2023-08-12T09:12:46;26.10;99.90
15413;DHT22;7805;49.554;7.632;2023-08-12T09:15:12;26.00;99.90
15413;DHT22;7805;49.554;7.632;2023-08-12T09:17:38;25.80;99.90
15413;DHT22;7805;49.554;7.632;2023-08-12T09:20:05;25.60;99.90
15413;DHT22;7805;49.554;7.632;2023-08-12T09:22:37;25.40;99.90
15413;DHT22;7805;49.554;7.632;2023-08-12T09:25:03;25.20;99.90
15413;DHT22;7805;49.554;7.632;2023-08-12T09:27:35;25.20;99.90
15413;DHT22;7805;49.554;7.632;2023-08-12T09:30:03;25.10;99.90
15413;DHT22;7805;49.554;7.632;2023-08-12T09:32:28;25.00;99.90
15413;DHT22;7805;49.554;7.632;2023-08-12T09:34:55;24.80;99.90
15413;DHT22;7805;49.554;7.632;2023-08-12T09:37:23;24.70;99.90
15413;DHT22;7805;49.554;7.632;2023-08-12T09:39:50;24.70;99.90
15413;DHT22;7805;49.554;7.632;2023-08-12T09:42:17;24.40;99.90
15413;DHT22;7805;49.554;7.632;2023-08-12T09:44:43;24.00;99.90
15413;DHT22;7805;49.554;7.632;2023-08-12T09:47:10;23.70;99.90
15413;DHT22;7805;49.554;7.632;2023-08-12T09:49:36;23.50;99.90
15413;DHT22;7805;49.554;7.632;2023-08-12T09:52:04;23.30;99.90
15413;DHT22;7805;49.554;7.632;2023-08-12T09:54:33;23.20;99.90
15413;DHT22;7805;49.554;7.632;2023-08-12T09:57:01;23.20;99.90
15413;DHT22;7805;49.554;7.632;2023-08-12T09:59:45;23.20;99.90
15413;DHT22;7805;49.554;7.632;2023-08-12T10:02:15;23.30;99.90
15413;DHT22;7805;49.554;7.632;2023-08-12T10:04:45;23.30;99.90
15413;DHT22;7805;49.554;7.632;2023-08-12T10:07:11;23.50;99.90
15413;DHT22;7805;49.554;7.632;2023-08-12T10:09:40;23.60;99.90
15413;DHT22;7805;49.554;7.632;2023-08-12T10:12:07;23.60;99.90
15413;DHT22;7805;49.554;7.632;2023-08-12T10:14:33;23.70;99.90
15413;DHT22;7805;49.554;7.632;2023-08-12T10:16:59;24.00;99.90
15413;DHT22;7805;49.554;7.632;2023-08-12T10:19:25;23.80;99.90
15413;DHT22;7805;49.554;7.632;2023-08-12T10:21:55;24.10;99.90
15413;DHT22;7805;49.554;7.632;2023-08-12T10:24:26;24.00;99.90
15413;DHT22;7805;49.554;7.632;2023-08-12T10:26:52;24.00;99.90
15413;DHT22;7805;49.554;7.632;2023-08-12T10:29:19;24.00;99.90
15413;DHT22;7805;49.554;7.632;2023-08-12T10:31:46;24.00;99.90
15413;DHT22;7805;49.554;7.632;2023-08-12T10:34:22;23.90;99.90
15413;DHT22;7805;49.554;7.632;2023-08-12T10:36:52;24.10;99.90
15413;DHT22;7805;49.554;7.632;2023-08-12T10:39:18;24.10;99.90
15413;DHT22;7805;49.554;7.632;2023-08-12T10:41:50;24.30;99.90
15413;DHT22;7805;49.554;7.632;2023-08-12T10:44:20;24.40;99.90
15413;DHT22;7805;49.554;7.632;2023-08-12T10:46:50;24.90;99.90
15413;DHT22;7805;49.554;7.632;2023-08-12T10:49:19;25.60;99.90
15413;DHT22;7805;49.554;7.632;2023-08-12T10:54:26;26.50;99.90
15413;DHT22;7805;49.554;7.632;2023-08-12T10:57:35;26.50;99.90
15413;DHT22;7805;49.554;7.632;2023-08-12T11:00:05;26.90;99.90
15413;DHT22;7805;49.554;7.632;2023-08-12T11:02:33;27.50;99.90
15413;DHT22;7805;49.554;7.632;2023-08-12T11:05:12;27.40;99.90
15413;DHT22;7805;49.554;7.632;2023-08-12T11:07:44;27.20;99.90
15413;DHT22;7805;49.554;7.632;2023-08-12T11:10:10;27.20;99.90
15413;DHT22;7805;49.554;7.632;2023-08-12T11:12:38;27.30;99.90
15413;DHT22;7805;49.554;7.632;2023-08-12T11:15:05;27.60;99.90
15413;DHT22;7805;49.554;7.632;2023-08-12T11:17:35;27.60;99.90
15413;DHT22;7805;49.554;7.632;2023-08-12T11:20:06;27.70;99.90
15413;DHT22;7805;49.554;7.632;2023-08-12T11:22:35;27.70;99.90
15413;DHT22;7805;49.554;7.632;2023-08-12T11:25:02;27.60;99.90
15413;DHT22;7805;49.554;7.632;2023-08-12T11:27:28;27.50;99.90
15413;DHT22;7805;49.554;7.632;2023-08-12T11:29:53;27.40;99.90
15413;DHT22;7805;49.554;7.632;2023-08-12T11:32:19;27.60;99.90
15413;DHT22;7805;49.554;7.632;2023-08-12T11:34:45;27.70;99.90
15413;DHT22;7805;49.554;7.632;2023-08-12T11:37:10;28.00;99.90
15413;DHT22;7805;49.554;7.632;2023-08-12T11:39:37;28.40;99.90
15413;DHT22;7805;49.554;7.632;2023-08-12T11:42:02;28.70;99.90
15413;DHT22;7805;49.554;7.632;2023-08-12T11:44:28;29.00;99.90
15413;DHT22;7805;49.554;7.632;2023-08-12T11:46:54;28.90;99.90
15413;DHT22;7805;49.554;7.632;2023-08-12T11:49:20;29.10;99.90
15413;DHT22;7805;49.554;7.632;2023-08-12T11:51:47;29.40;99.90
15413;DHT22;7805;49.554;7.632;2023-08-12T11:54:14;29.40;99.90
15413;DHT22;7805;49.554;7.632;2023-08-12T11:56:40;29.50;99.90
15413;DHT22;7805;49.554;7.632;2023-08-12T11:59:06;29.70;99.90
15413;DHT22;7805;49.554;7.632;2023-08-12T12:01:35;29.70;99.90
15413;DHT22;7805;49.554;7.632;2023-08-12T12:04:09;29.60;99.90
15413;DHT22;7805;49.554;7.632;2023-08-12T12:06:38;29.80;99.90
15413;DHT22;7805;49.554;7.632;2023-08-12T12:09:06;29.90;99.90
15413;DHT22;7805;49.554;7.632;2023-08-12T12:11:35;29.80;99.90
15413;DHT22;7805;49.554;7.632;2023-08-12T12:14:06;29.80;99.90
15413;DHT22;7805;49.554;7.632;2023-08-12T12:16:43;29.80;99.90
15413;DHT22;7805;49.554;7.632;2023-08-12T12:19:21;29.80;99.90
15413;DHT22;7805;49.554;7.632;2023-08-12T12:21:51;29.60;99.90
15413;DHT22;7805;49.554;7.632;2023-08-12T12:24:17;29.50;99.90
15413;DHT22;7805;49.554;7.632;2023-08-12T12:26:46;29.50;99.90
15413;DHT22;7805;49.554;7.632;2023-08-12T12:29:12;29.50;99.90
15413;DHT22;7805;49.554;7.632;2023-08-12T12:31:39;29.60;99.90
15413;DHT22;7805;49.554;7.632;2023-08-12T12:34:06;29.80;99.90
15413;DHT22;7805;49.554;7.632;2023-08-12T12:36:36;29.90;99.90
15413;DHT22;7805;49.554;7.632;2023-08-12T12:39:03;30.10;99.90
15413;DHT22;7805;49.554;7.632;2023-08-12T12:41:30;30.10;99.90
15413;DHT22;7805;49.554;7.632;2023-08-12T12:43:56;30.10;99.90
15413;DHT22;7805;49.554;7.632;2023-08-12T12:46:21;30.10;99.90
15413;DHT22;7805;49.554;7.632;2023-08-12T12:48:47;30.20;99.90
15413;DHT22;7805;49.554;7.632;2023-08-12T12:51:13;30.10;99.90
15413;DHT22;7805;49.554;7.632;2023-08-12T12:53:39;30.00;99.90
15413;DHT22;7805;49.554;7.632;2023-08-12T12:56:05;29.60;99.90
15413;DHT22;7805;49.554;7.632;2023-08-12T12:58:32;29.50;99.90
15413;DHT22;7805;49.554;7.632;2023-08-12T13:01:00;29.40;99.90
15413;DHT22;7805;49.554;7.632;2023-08-12T13:03:26;29.30;99.90
15413;DHT22;7805;49.554;7.632;2023-08-12T13:05:52;29.10;99.90
15413;DHT22;7805;49.554;7.632;2023-08-12T13:08:18;29.10;99.90
15413;DHT22;7805;49.554;7.632;2023-08-12T13:10:44;29.20;99.90
15413;DHT22;7805;49.554;7.632;2023-08-12T13:13:09;29.60;99.90
15413;DHT22;7805;49.554;7.632;2023-08-12T13:15:35;29.80;99.90
15413;DHT22;7805;49.554;7.632;2023-08-12T13:18:01;30.00;99.90
15413;DHT22;7805;49.554;7.632;2023-08-12T13:20:28;30.30;99.90
15413;DHT22;7805;49.554;7.632;2023-08-12T13:22:53;31.80;99.90
15413;DHT22;7805;49.554;7.632;2023-08-12T13:25:19;30.20;99.90
15413;DHT22;7805;49.554;7.632;2023-08-12T13:27:44;30.20;99.90
15413;DHT22;7805;49.554;7.632;2023-08-12T13:30:10;30.40;99.90
15413;DHT22;7805;49.554;7.632;2023-08-12T13:32:38;30.20;99.70
15413;DHT22;7805;49.554;7.632;2023-08-12T13:35:04;29.90;99.90
15413;DHT22;7805;49.554;7.632;2023-08-12T13:37:31;29.70;99.90
15413;DHT22;7805;49.554;7.632;2023-08-12T13:39:57;29.60;99.90
15413;DHT22;7805;49.554;7.632;2023-08-12T13:42:22;29.80;99.90
15413;DHT22;7805;49.554;7.632;2023-08-12T13:44:48;29.90;99.90
15413;DHT22;7805;49.554;7.632;2023-08-12T13:47:14;30.10;99.90
15413;DHT22;7805;49.554;7.632;2023-08-12T13:49:39;30.20;99.90
15413;DHT22;7805;49.554;7.632;2023-08-12T13:52:05;30.10;99.90
15413;DHT22;7805;49.554;7.632;2023-08-12T13:54:30;30.10;99.90
15413;DHT22;7805;49.554;7.632;2023-08-12T13:56:56;30.10;99.30
15413;DHT22;7805;49.554;7.632;2023-08-12T13:59:21;29.80;99.10
15413;DHT22;7805;49.554;7.632;2023-08-12T14:01:47;29.50;99.50
15413;DHT22;7805;49.554;7.632;2023-08-12T14:04:13;29.50;99.90
15413;DHT22;7805;49.554;7.632;2023-08-12T14:06:41;29.70;99.90
15413;DHT22;7805;49.554;7.632;2023-08-12T14:09:06;29.80;99.90
15413;DHT22;7805;49.554;7.632;2023-08-12T14:11:37;30.00;99.90
15413;DHT22;7805;49.554;7.632;2023-08-12T14:14:03;29.70;99.90
15413;DHT22;7805;49.554;7.632;2023-08-12T14:16:29;29.40;99.90
15413;DHT22;7805;49.554;7.632;2023-08-12T14:18:54;29.40;99.90
15413;DHT22;7805;49.554;7.632;2023-08-12T14:21:20;29.40;99.90
15413;DHT22;7805;49.554;7.632;2023-08-12T14:23:46;29.20;99.90
15413;DHT22;7805;49.554;7.632;2023-08-12T14:26:11;29.20;99.90
15413;DHT22;7805;49.554;7.632;2023-08-12T14:31:05;29.00;99.80
15413;DHT22;7805;49.554;7.632;2023-08-12T14:33:30;29.00;99.70
15413;DHT22;7805;49.554;7.632;2023-08-12T14:35:59;29.00;99.30
15413;DHT22;7805;49.554;7.632;2023-08-12T14:38:25;29.10;99.10
15413;DHT22;7805;49.554;7.632;2023-08-12T14:40:51;29.50;99.30
15413;DHT22;7805;49.554;7.632;2023-08-12T14:43:16;30.00;99.00
15413;DHT22;7805;49.554;7.632;2023-08-12T14:45:44;29.80;98.10
15413;DHT22;7805;49.554;7.632;2023-08-12T14:48:11;29.60;98.20
15413;DHT22;7805;49.554;7.632;2023-08-12T14:50:39;29.50;98.30
15413;DHT22;7805;49.554;7.632;2023-08-12T14:53:05;29.30;98.60
15413;DHT22;7805;49.554;7.632;2023-08-12T14:55:30;28.80;98.50
15413;DHT22;7805;49.554;7.632;2023-08-12T14:57:56;28.70;99.20
15413;DHT22;7805;49.554;7.632;2023-08-12T15:00:22;28.60;99.40
15413;DHT22;7805;49.554;7.632;2023-08-12T15:02:47;28.80;99.90
15413;DHT22;7805;49.554;7.632;2023-08-12T15:05:13;29.10;99.60
15413;DHT22;7805;49.554;7.632;2023-08-12T15:07:38;29.20;99.50
15413;DHT22;7805;49.554;7.632;2023-08-12T15:10:04;29.10;99.30
15413;DHT22;7805;49.554;7.632;2023-08-12T15:12:30;28.80;99.70
15413;DHT22;7805;49.554;7.632;2023-08-12T15:14:56;27.20;99.70
15413;DHT22;7805;49.554;7.632;2023-08-12T15:17:22;28.40;99.90
15413;DHT22;7805;49.554;7.632;2023-08-12T15:19:48;28.40;99.90
15413;DHT22;7805;49.554;7.632;2023-08-12T15:22:13;28.40;99.90
15413;DHT22;7805;49.554;7.632;2023-08-12T15:24:39;28.50;99.90
15413;DHT22;7805;49.554;7.632;2023-08-12T15:27:05;28.60;99.90
15413;DHT22;7805;49.554;7.632;2023-08-12T15:29:30;28.20;99.90
15413;DHT22;7805;49.554;7.632;2023-08-12T15:31:56;28.00;99.90
15413;DHT22;7805;49.554;7.632;2023-08-12T15:34:22;27.80;99.90
15413;DHT22;7805;49.554;7.632;2023-08-12T15:36:51;27.50;99.90
15413;DHT22;7805;49.554;7.632;2023-08-12T15:39:17;27.40;99.90
15413;DHT22;7805;49.554;7.632;2023-08-12T15:41:43;27.20;99.90
15413;DHT22;7805;49.554;7.632;2023-08-12T15:44:10;27.30;99.90
15413;DHT22;7805;49.554;7.632;2023-08-12T15:46:36;27.40;99.90
15413;DHT22;7805;49.554;7.632;2023-08-12T15:49:04;27.40;99.90
15413;DHT22;7805;49.554;7.632;2023-08-12T15:51:30;27.30;99.90
15413;DHT22;7805;49.554;7.632;2023-08-12T15:53:56;27.30;99.90
15413;DHT22;7805;49.554;7.632;2023-08-12T15:56:22;27.00;99.90
15413;DHT22;7805;49.554;7.632;2023-08-12T15:58:47;27.00;99.90
15413;DHT22;7805;49.554;7.632;2023-08-12T16:01:13;26.90;99.90
15413;DHT22;7805;49.554;7.632;2023-08-12T16:03:39;27.00;99.90
15413;DHT22;7805;49.554;7.632;2023-08-12T16:06:05;27.10;99.90
15413;DHT22;7805;49.554;7.632;2023-08-12T16:08:31;27.10;99.90
15413;DHT22;7805;49.554;7.632;2023-08-12T16:10:56;27.20;99.90
15413;DHT22;7805;49.554;7.632;2023-08-12T16:13:22;27.20;99.90
15413;DHT22;7805;49.554;7.632;2023-08-12T16:15:47;27.50;99.90
15413;DHT22;7805;49.554;7.632;2023-08-12T16:18:13;27.30;99.90
15413;DHT22;7805;49.554;7.632;2023-08-12T16:20:39;27.30;99.90
15413;DHT22;7805;49.554;7.632;2023-08-12T16:23:04;27.40;99.90
15413;DHT22;7805;49.554;7.632;2023-08-12T16:25:30;27.00;99.90
15413;DHT22;7805;49.554;7.632;2023-08-12T16:27:56;27.00;99.90
15413;DHT22;7805;49.554;7.632;2023-08-12T16:30:22;27.10;99.90
15413;DHT22;7805;49.554;7.632;2023-08-12T16:32:47;27.30;99.90